createdAt,value
2023-03-13T00:00:16.545Z,94.89
2023-03-13T00:03:12.205Z,95.12
2023-03-13T00:06:20.595Z,96.19
2023-03-13T00:09:17.605Z,94.78
2023-03-13T00:12:01.370Z,95.14
2023-03-13T00:14:55.084Z,95.01
2023-03-13T00:18:04.135Z,93.05
2023-03-13T00:20:41.103Z,95.35
2023-03-13T00:24:21.074Z,95.43
2023-03-13T00:27:29.678Z,97.47
2023-03-13T00:31:19.075Z,100.00
2023-03-13T00:34:27.897Z,98.65
2023-03-13T00:37:52.298Z,98.08
2023-03-13T00:40:51.649Z,97.54
2023-03-13T00:43:51.316Z,95.34
2023-03-13T00:47:06.129Z,97.98
2023-03-13T00:50:20.844Z,97.90
2023-03-13T00:53:09.041Z,96.91
2023-03-13T00:55:37.575Z,97.74
2023-03-13T00:58:28.110Z,96.36
2023-03-13T01:01:29.499Z,95.63
2023-03-13T01:04:16.064Z,97.04
2023-03-13T01:06:47.801Z,95.52
2023-03-13T01:09:36.800Z,95.44
2023-03-13T01:12:28.074Z,96.23
2023-03-13T01:15:24.188Z,94.89
2023-03-13T01:17:55.252Z,96.38
2023-03-13T01:20:26.038Z,96.74
2023-03-13T01:23:16.177Z,95.85
2023-03-13T01:25:46.803Z,96.00
2023-03-13T01:28:15.281Z,96.53
2023-03-13T01:31:14.484Z,96.91
2023-03-13T01:33:51.127Z,97.81
2023-03-13T01:36:23.607Z,97.72
2023-03-13T01:39:41.340Z,97.50
2023-03-13T01:42:22.151Z,98.78
2023-03-13T01:45:22.836Z,98.91
2023-03-13T01:48:11.585Z,99.34
2023-03-13T01:51:38.587Z,98.79
2023-03-13T01:55:05.409Z,97.56
2023-03-13T01:57:54.970Z,98.55
2023-03-13T02:01:06.687Z,99.21
2023-03-13T02:04:48.150Z,99.44
2023-03-13T02:08:05.098Z,99.11
2023-03-13T02:10:39.819Z,99.46
2023-03-13T02:13:47.232Z,99.99
2023-03-13T02:16:36.620Z,100.00
2023-03-13T02:19:35.833Z,100.00
2023-03-13T02:22:50.631Z,100.00
2023-03-13T02:25:27.580Z,100.00
2023-03-13T02:28:07.976Z,100.00
2023-03-13T02:30:55.920Z,100.00
2023-03-13T02:33:35.463Z,100.00
2023-03-13T02:36:09.443Z,100.00
2023-03-13T02:39:06.190Z,100.00
2023-03-13T02:41:54.770Z,100.00
2023-03-13T02:44:53.685Z,100.00
2023-03-13T02:47:24.776Z,100.00
2023-03-13T02:50:14.292Z,100.00
2023-03-13T02:53:08.127Z,100.00
2023-03-13T02:55:41.237Z,100.00
2023-03-13T02:58:15.645Z,100.00
2023-03-13T03:01:08.016Z,100.00
2023-03-13T03:04:01.008Z,100.00
2023-03-13T03:06:39.175Z,100.00
2023-03-13T03:09:12.900Z,100.00
2023-03-13T03:11:47.434Z,100.00
2023-03-13T03:14:40.584Z,100.00
2023-03-13T03:17:08.772Z,100.00
2023-03-13T03:19:44.782Z,100.00
2023-03-13T03:22:18.338Z,100.00
2023-03-13T03:25:00.757Z,100.00
2023-03-13T03:27:46.162Z,100.00
2023-03-13T03:30:37.540Z,100.00
2023-03-13T03:33:26.004Z,100.00
2023-03-13T03:36:02.813Z,100.00
2023-03-13T03:38:54.149Z,100.00
2023-03-13T03:41:29.237Z,100.00
2023-03-13T03:44:17.942Z,100.00
2023-03-13T03:47:19.612Z,100.00
2023-03-13T03:50:38.669Z,100.00
2023-03-13T03:53:32.835Z,100.00
2023-03-13T03:56:05.576Z,100.00
2023-03-13T03:59:38.580Z,100.00
2023-03-13T04:02:24.101Z,100.00
2023-03-13T04:05:34.249Z,100.00
2023-03-13T04:08:24.552Z,100.00
2023-03-13T04:11:16.172Z,100.00
2023-03-13T04:14:12.536Z,100.00
2023-03-13T04:17:04.274Z,100.00
2023-03-13T04:20:12.098Z,100.00
2023-03-13T04:23:37.439Z,100.00
2023-03-13T04:26:29.103Z,100.00
2023-03-13T04:29:43.246Z,100.00
2023-03-13T04:33:17.328Z,100.00
2023-03-13T04:36:15.283Z,100.00
2023-03-13T04:39:22.161Z,100.00
2023-03-13T04:42:27.421Z,100.00
2023-03-13T04:45:47.798Z,100.00
2023-03-13T04:49:16.944Z,100.00
2023-03-13T04:52:13.231Z,100.00
2023-03-13T04:55:33.915Z,100.00
2023-03-13T04:58:56.074Z,100.00
2023-03-13T05:02:10.644Z,100.00
2023-03-13T05:05:11.062Z,100.00
2023-03-13T05:08:01.335Z,100.00
2023-03-13T05:11:07.031Z,100.00
2023-03-13T05:14:40.482Z,100.00
2023-03-13T05:17:37.964Z,100.00
2023-03-13T05:20:28.731Z,100.00
2023-03-13T05:23:44.991Z,100.00
2023-03-13T05:26:32.415Z,100.00
2023-03-13T05:29:51.423Z,100.00
2023-03-13T05:32:42.009Z,100.00
2023-03-13T05:35:59.572Z,100.00
2023-03-13T05:38:54.407Z,100.00
2023-03-13T05:41:46.120Z,100.00
2023-03-13T05:44:49.417Z,100.00
2023-03-13T05:47:41.749Z,100.00
2023-03-13T05:50:42.364Z,100.00
2023-03-13T05:53:52.751Z,100.00
2023-03-13T05:57:27.461Z,100.00
2023-03-13T06:01:14.141Z,100.00
2023-03-13T06:03:51.749Z,100.00
2023-03-13T06:06:49.553Z,100.00
2023-03-13T06:09:48.877Z,100.00
2023-03-13T06:12:17.246Z,100.00
2023-03-13T06:15:12.059Z,100.00
2023-03-13T06:18:37.103Z,100.00
2023-03-13T06:21:13.630Z,100.00
2023-03-13T06:23:45.009Z,100.00
2023-03-13T06:26:13.728Z,100.00
2023-03-13T06:28:47.406Z,100.00
2023-03-13T06:31:16.035Z,100.00
2023-03-13T06:33:50.741Z,100.00
2023-03-13T06:36:58.960Z,100.00
2023-03-13T06:40:26.900Z,100.00
2023-03-13T06:56:22.364Z,100.00
2023-03-13T06:59:19.005Z,100.00
2023-03-13T07:02:17.256Z,100.00
2023-03-13T07:05:05.878Z,100.00
2023-03-13T07:07:34.135Z,100.00
2023-03-13T07:10:53.906Z,100.00
2023-03-13T07:14:22.748Z,100.00
2023-03-13T07:17:42.085Z,100.00
2023-03-13T07:21:03.721Z,100.00
2023-03-13T07:23:43.493Z,100.00
2023-03-13T07:27:22.587Z,100.00
2023-03-13T07:29:56.681Z,100.00
2023-03-13T07:33:09.263Z,100.00
2023-03-13T07:36:36.657Z,100.00
2023-03-13T07:39:45.239Z,99.97
2023-03-13T07:43:25.159Z,99.55
2023-03-13T07:46:50.151Z,98.57
2023-03-13T07:50:31.685Z,97.35
2023-03-13T07:53:51.837Z,95.85
2023-03-13T07:57:17.040Z,96.40
2023-03-13T08:00:37.895Z,95.71
2023-03-13T08:04:26.661Z,93.87
2023-03-13T08:08:03.695Z,93.69
2023-03-13T08:11:46.568Z,93.47
2023-03-13T08:15:32.733Z,92.07
2023-03-13T08:18:45.650Z,91.57
2023-03-13T08:22:07.711Z,91.29
2023-03-13T08:25:45.859Z,91.33
2023-03-13T08:29:34.969Z,90.17
2023-03-13T08:33:07.452Z,89.20
2023-03-13T08:36:59.957Z,89.58
2023-03-13T08:47:24.263Z,88.57
2023-03-13T08:50:06.522Z,87.09
2023-03-13T08:53:04.046Z,85.98
2023-03-13T08:56:42.098Z,85.57
2023-03-13T08:59:51.700Z,83.84
2023-03-13T09:02:53.875Z,83.71
2023-03-13T09:06:13.053Z,82.16
2023-03-13T09:09:33.336Z,81.53
2023-03-13T09:12:31.608Z,79.20
2023-03-13T09:15:20.897Z,78.60
2023-03-13T09:18:12.689Z,78.31
2023-03-13T09:21:44.610Z,78.60
2023-03-13T09:25:22.149Z,77.65
2023-03-13T09:27:59.128Z,75.34
2023-03-13T09:30:42.552Z,75.82
2023-03-13T09:33:53.714Z,73.66
2023-03-13T09:37:11.679Z,72.85
2023-03-13T09:40:40.809Z,72.23
2023-03-13T09:43:52.449Z,69.33
2023-03-13T09:46:37.681Z,69.14
2023-03-13T09:49:26.685Z,67.82
2023-03-13T09:52:41.073Z,67.24
2023-03-13T09:59:24.530Z,63.74
2023-03-13T10:03:08.040Z,63.84
2023-03-13T10:06:10.503Z,62.91
2023-03-13T10:09:43.206Z,62.89
2023-03-13T10:13:00.214Z,63.52
2023-03-13T10:16:43.897Z,63.56
2023-03-13T10:33:54.284Z,58.97
2023-03-13T10:39:38.411Z,58.91
2023-03-13T10:42:30.242Z,60.42
2023-03-13T10:52:41.536Z,55.86
2023-03-13T10:56:09.479Z,54.66
2023-03-13T10:59:22.157Z,55.53
2023-03-13T11:03:19.603Z,52.18
2023-03-13T11:07:27.585Z,49.23
2023-03-13T11:11:01.772Z,47.13
2023-03-13T11:14:43.014Z,46.53
2023-03-13T11:18:02.485Z,47.22
2023-03-13T11:21:17.582Z,47.09
2023-03-13T11:24:26.371Z,48.07
2023-03-13T11:27:52.527Z,49.06
2023-03-13T11:30:35.978Z,49.94
2023-03-13T11:33:58.791Z,49.92
2023-03-13T11:37:19.642Z,49.43
2023-03-13T11:40:15.767Z,49.36
2023-03-13T11:43:24.159Z,49.28
2023-03-13T11:46:59.861Z,49.30
2023-03-13T11:50:53.890Z,48.71
2023-03-13T11:54:45.249Z,48.72
2023-03-13T11:58:16.828Z,47.96
2023-03-13T12:05:38.742Z,45.14
2023-03-13T12:09:29.594Z,44.64
2023-03-13T12:13:32.655Z,44.91
2023-03-13T12:17:00.540Z,45.66
2023-03-13T12:41:29.157Z,52.84
2023-03-13T12:45:11.148Z,56.36
2023-03-13T12:49:22.569Z,60.37
2023-03-13T13:04:42.231Z,74.19
2023-03-13T13:07:45.971Z,77.91
2023-03-13T13:10:29.821Z,80.06
2023-03-13T13:13:49.838Z,83.03
2023-03-13T13:17:05.535Z,85.06
2023-03-13T13:20:45.137Z,86.18
2023-03-13T13:24:12.968Z,86.19
2023-03-13T13:27:42.074Z,87.12
2023-03-13T13:31:30.064Z,86.87
2023-03-13T13:34:44.969Z,85.56
2023-03-13T13:38:02.870Z,85.18
2023-03-13T13:42:10.251Z,83.59
2023-03-13T13:45:08.935Z,82.27
2023-03-13T13:48:39.183Z,81.89
2023-03-13T13:52:43.832Z,81.27
2023-03-13T13:56:20.855Z,80.54
2023-03-13T13:59:53.256Z,78.56
2023-03-13T14:03:09.741Z,77.91
2023-03-13T14:06:35.941Z,77.18
2023-03-13T14:09:45.987Z,77.78
2023-03-13T14:32:23.062Z,78.66
2023-03-13T14:35:42.809Z,78.65
2023-03-13T14:38:54.693Z,78.54
2023-03-13T14:42:33.811Z,78.39
2023-03-13T14:45:59.663Z,78.54
2023-03-13T14:49:13.860Z,78.76
2023-03-13T14:52:06.308Z,78.67
2023-03-13T14:54:48.349Z,79.30
2023-03-13T14:57:27.101Z,80.06
2023-03-13T15:00:58.615Z,80.88
2023-03-13T15:04:24.978Z,81.17
2023-03-13T15:07:56.481Z,82.18
2023-03-13T15:11:24.978Z,82.72
2023-03-13T15:14:36.238Z,82.64
2023-03-13T15:17:46.084Z,83.09
2023-03-13T15:20:51.847Z,83.44
2023-03-13T15:23:50.698Z,83.23
2023-03-13T15:27:02.532Z,83.02
2023-03-13T15:30:46.332Z,83.67
2023-03-13T15:34:35.426Z,83.98
2023-03-13T15:38:21.052Z,84.19
2023-03-13T15:49:36.033Z,84.24
2023-03-13T15:52:50.176Z,83.70
2023-03-13T15:56:02.267Z,83.54
2023-03-13T15:59:51.385Z,83.67
2023-03-13T16:03:33.377Z,83.35
2023-03-13T16:06:42.291Z,82.65
2023-03-13T16:10:14.600Z,82.15
2023-03-13T16:13:15.712Z,81.40
2023-03-13T16:16:55.887Z,81.06
2023-03-13T16:20:30.100Z,79.55
2023-03-13T16:24:05.258Z,78.96
2023-03-13T16:27:41.980Z,78.42
2023-03-13T17:03:46.520Z,72.05
2023-03-13T17:07:34.562Z,71.76
2023-03-13T17:11:22.892Z,71.73
2023-03-13T17:15:12.163Z,71.70
2023-03-13T17:18:46.488Z,72.17
2023-03-13T17:21:57.797Z,72.36
2023-03-13T17:25:43.953Z,72.04
2023-03-13T17:29:35.167Z,71.56
2023-03-13T17:33:22.215Z,69.89
2023-03-13T17:52:43.523Z,65.41
2023-03-13T17:56:32.722Z,64.70
2023-03-13T18:00:22.336Z,64.64
2023-03-13T18:04:11.291Z,64.51
2023-03-13T18:08:03.955Z,63.72
2023-03-13T18:19:58.128Z,61.44
2023-03-13T18:23:40.550Z,59.83
2023-03-13T18:27:32.636Z,58.65
2023-03-13T18:31:04.558Z,58.16
2023-03-13T18:34:13.237Z,57.59
2023-03-13T18:38:07.067Z,57.59
2023-03-13T18:41:57.633Z,56.65
2023-03-13T18:45:44.747Z,55.93
2023-03-13T18:49:33.564Z,55.65
2023-03-13T18:53:13.780Z,55.23
2023-03-13T18:57:07.571Z,54.53
2023-03-13T19:08:13.928Z,54.56
2023-03-13T19:12:11.332Z,54.09
2023-03-13T19:37:42.126Z,53.87
2023-03-13T19:41:13.381Z,54.15
2023-03-13T19:45:02.586Z,54.24
2023-03-13T19:48:50.431Z,54.02
2023-03-13T19:52:39.652Z,53.88
2023-03-13T19:56:28.844Z,54.18
2023-03-13T19:59:35.667Z,54.09
2023-03-13T20:02:24.379Z,53.99
2023-03-13T20:05:12.825Z,54.26
2023-03-13T20:08:04.545Z,54.53
2023-03-13T20:11:05.727Z,54.85
2023-03-13T20:14:17.796Z,54.72
2023-03-13T20:24:29.001Z,55.12
2023-03-13T20:35:26.013Z,55.53
2023-03-13T20:38:39.749Z,55.89
2023-03-13T20:42:15.066Z,55.60
2023-03-13T20:44:56.297Z,55.74
2023-03-13T20:48:26.116Z,55.62
2023-03-13T20:52:07.855Z,55.87
2023-03-13T20:55:56.782Z,56.21
2023-03-13T20:59:47.038Z,56.19
2023-03-13T21:03:36.245Z,56.45
2023-03-13T21:07:03.550Z,55.96
2023-03-13T21:10:51.570Z,55.84
2023-03-13T21:14:40.517Z,56.10
2023-03-13T21:18:29.691Z,55.84
2023-03-13T21:22:18.582Z,55.86
2023-03-13T21:26:07.644Z,55.78
2023-03-13T21:29:55.489Z,55.39
2023-03-13T21:33:44.030Z,55.19
2023-03-13T21:37:32.906Z,55.47
2023-03-13T21:41:22.089Z,55.41
2023-03-13T21:44:18.436Z,55.33
2023-03-13T21:47:07.416Z,55.64
2023-03-13T21:50:16.130Z,55.62
2023-03-13T21:53:54.090Z,55.42
2023-03-13T22:01:15.422Z,55.63
2023-03-13T22:30:59.478Z,56.83
2023-03-13T22:34:48.467Z,57.45
2023-03-13T22:38:37.800Z,57.06
2023-03-13T22:42:26.671Z,56.89
2023-03-13T22:46:15.428Z,56.52
2023-03-13T22:50:04.292Z,56.01
2023-03-13T22:53:53.617Z,56.33
2023-03-13T22:57:42.602Z,56.38
2023-03-13T23:01:31.802Z,56.59
2023-03-13T23:04:20.441Z,56.66
2023-03-13T23:07:49.499Z,56.78
2023-03-13T23:11:41.180Z,57.13
2023-03-13T23:15:43.056Z,57.22
2023-03-13T23:46:15.346Z,56.16
2023-03-13T23:50:04.268Z,55.75
2023-03-13T23:53:53.656Z,55.79
2023-03-13T23:57:42.609Z,55.96
